createdAt,value
2022-12-26T00:01:58.402Z,8.70
2022-12-26T00:07:05.518Z,9.80
2022-12-26T00:12:13.072Z,9.40
2022-12-26T00:17:22.488Z,9.70
2022-12-26T00:22:28.979Z,10.00
2022-12-26T00:27:36.034Z,9.60
2022-12-26T00:32:42.407Z,10.80
2022-12-26T00:37:49.331Z,10.40
2022-12-26T00:42:56.176Z,10.60
2022-12-26T00:48:03.357Z,10.20
2022-12-26T00:53:09.957Z,11.70
2022-12-26T00:58:17.137Z,11.40
2022-12-26T01:03:24.635Z,11.00
2022-12-26T01:08:32.576Z,10.40
2022-12-26T01:13:39.327Z,10.30
2022-12-26T01:18:45.662Z,10.20
2022-12-26T01:23:52.633Z,10.00
2022-12-26T01:28:59.397Z,10.10
2022-12-26T01:34:05.491Z,9.70
2022-12-26T01:39:13.233Z,9.80
2022-12-26T01:45:15.316Z,9.60
2022-12-26T01:50:38.119Z,9.30
2022-12-26T01:55:48.828Z,9.60
2022-12-26T02:00:55.662Z,9.70
2022-12-26T02:06:03.038Z,10.00
2022-12-26T02:11:23.257Z,9.60
2022-12-26T02:16:30.729Z,9.00
2022-12-26T02:22:10.030Z,9.10
2022-12-26T02:28:04.320Z,9.20
2022-12-26T02:33:36.670Z,9.00
2022-12-26T02:39:45.455Z,9.00
2022-12-26T02:45:15.347Z,9.20
2022-12-26T02:51:07.441Z,9.30
2022-12-26T02:56:34.445Z,9.40
2022-12-26T03:02:04.193Z,9.20
2022-12-26T03:07:35.115Z,9.20
2022-12-26T03:13:13.701Z,9.30
2022-12-26T03:18:56.923Z,9.30
2022-12-26T03:23:32.700Z,9.50
2022-12-26T03:28:39.453Z,9.30
2022-12-26T03:34:05.216Z,9.50
2022-12-26T03:40:00.767Z,10.50
2022-12-26T03:45:32.577Z,10.30
2022-12-26T03:51:02.901Z,10.00
2022-12-26T03:56:21.523Z,9.90
2022-12-26T04:01:49.564Z,9.80
2022-12-26T04:07:24.425Z,9.90
2022-12-26T04:12:51.267Z,9.90
2022-12-26T04:18:23.070Z,9.80
2022-12-26T04:23:57.943Z,9.90
2022-12-26T04:29:23.842Z,10.10
2022-12-26T04:35:10.842Z,10.40
2022-12-26T04:40:42.310Z,10.80
2022-12-26T04:45:48.888Z,10.80
2022-12-26T04:50:55.644Z,10.90
2022-12-26T04:56:02.561Z,11.00
2022-12-26T05:01:26.501Z,11.10
2022-12-26T05:06:51.381Z,11.00
2022-12-26T05:11:57.592Z,10.90
2022-12-26T05:17:24.855Z,11.20
2022-12-26T05:22:52.698Z,11.20
2022-12-26T05:28:16.257Z,11.20
2022-12-26T05:33:40.515Z,11.40
2022-12-26T05:38:46.838Z,11.10
2022-12-26T05:43:53.780Z,11.20
2022-12-26T05:49:00.233Z,11.20
2022-12-26T05:54:07.040Z,11.40
2022-12-26T05:59:13.715Z,11.30
2022-12-26T06:04:21.586Z,11.40
2022-12-26T06:09:27.138Z,11.40
2022-12-26T06:14:34.119Z,11.30
2022-12-26T06:19:46.488Z,11.40
2022-12-26T06:24:48.692Z,11.50
2022-12-26T06:29:55.155Z,11.40
2022-12-26T06:35:02.073Z,11.30
2022-12-26T06:40:09.939Z,11.10
2022-12-26T06:45:17.470Z,11.20
2022-12-26T06:50:24.295Z,11.20
2022-12-26T06:55:30.541Z,11.10
2022-12-26T07:00:37.187Z,11.10
2022-12-26T07:05:43.595Z,11.00
2022-12-26T07:10:48.919Z,11.10
2022-12-26T07:15:55.563Z,10.90
2022-12-26T07:21:03.651Z,10.80
2022-12-26T07:26:10.770Z,11.00
2022-12-26T07:31:21.867Z,10.90
2022-12-26T07:36:28.381Z,10.80
2022-12-26T07:41:53.540Z,11.00
2022-12-26T07:47:01.281Z,11.00
2022-12-26T07:52:07.949Z,10.90
2022-12-26T07:57:46.792Z,10.80
2022-12-26T08:02:23.108Z,10.90
2022-12-26T08:07:30.065Z,10.80
2022-12-26T08:12:37.504Z,10.70
2022-12-26T08:17:44.423Z,10.70
2022-12-26T08:22:50.753Z,10.70
2022-12-26T08:27:56.089Z,10.70
2022-12-26T08:33:02.100Z,10.60
2022-12-26T08:38:09.261Z,10.70
2022-12-26T08:43:39.127Z,11.00
2022-12-26T08:48:23.794Z,10.90
2022-12-26T08:53:33.004Z,11.30
2022-12-26T08:58:39.302Z,11.30
2022-12-26T09:03:47.490Z,11.40
2022-12-26T09:08:55.456Z,11.40
2022-12-26T09:14:04.490Z,11.30
2022-12-26T09:19:14.499Z,11.40
2022-12-26T09:24:22.126Z,11.80
2022-12-26T09:29:27.486Z,11.80
2022-12-26T09:34:33.670Z,12.10
2022-12-26T09:39:40.512Z,12.40
2022-12-26T09:45:06.011Z,12.40
2022-12-26T09:50:28.693Z,12.20
2022-12-26T09:55:53.887Z,12.30
2022-12-26T10:01:20.842Z,12.40
2022-12-26T10:06:42.853Z,12.30
2022-12-26T10:12:09.704Z,12.10
2022-12-26T10:17:36.077Z,12.30
2022-12-26T10:23:12.249Z,12.50
2022-12-26T10:28:41.773Z,12.60
2022-12-26T10:34:03.041Z,12.70
2022-12-26T10:39:14.286Z,12.60
2022-12-26T10:44:27.622Z,12.60
2022-12-26T10:49:32.485Z,12.70
2022-12-26T10:54:39.095Z,13.10
2022-12-26T10:59:53.357Z,12.70
2022-12-26T11:10:25.075Z,13.20
2022-12-26T11:15:41.179Z,13.00
2022-12-26T11:20:50.053Z,12.90
2022-12-26T11:26:02.904Z,12.70
2022-12-26T11:31:13.284Z,12.60
2022-12-26T11:36:26.446Z,12.60
2022-12-26T11:41:44.147Z,12.40
2022-12-26T11:47:13.953Z,12.30
2022-12-26T11:52:55.575Z,12.30
2022-12-26T11:58:17.097Z,12.30
2022-12-26T12:03:48.838Z,12.10
2022-12-26T12:09:26.407Z,12.00
2022-12-26T12:14:58.284Z,12.00
2022-12-26T12:20:39.872Z,12.00
2022-12-26T12:26:11.142Z,11.80
2022-12-26T12:31:44.097Z,11.60
2022-12-26T12:37:20.634Z,11.60
2022-12-26T12:42:44.459Z,11.50
2022-12-26T12:48:14.020Z,11.40
2022-12-26T12:53:45.339Z,11.40
2022-12-26T12:59:32.363Z,11.40
2022-12-26T13:04:44.970Z,11.40
2022-12-26T13:09:58.136Z,11.30
2022-12-26T13:15:33.643Z,11.40
2022-12-26T13:20:55.694Z,11.20
2022-12-26T13:26:24.155Z,11.00
2022-12-26T13:31:42.540Z,10.90
2022-12-26T13:36:53.048Z,10.80
2022-12-26T13:42:23.838Z,10.80
2022-12-26T13:47:42.313Z,10.80
2022-12-26T13:52:54.452Z,10.80
2022-12-26T13:58:11.803Z,10.70
2022-12-26T14:03:40.865Z,10.70
2022-12-26T14:09:31.166Z,10.70
2022-12-26T14:15:25.256Z,10.70
2022-12-26T14:20:58.349Z,10.70
2022-12-26T14:26:21.156Z,10.60
2022-12-26T14:31:48.625Z,10.60
2022-12-26T14:37:17.557Z,10.40
2022-12-26T14:42:44.215Z,10.40
2022-12-26T14:47:52.021Z,10.40
2022-12-26T14:53:09.737Z,10.40
2022-12-26T14:58:41.976Z,10.30
2022-12-26T15:04:11.434Z,10.30
2022-12-26T15:09:50.839Z,10.30
2022-12-26T15:15:45.937Z,10.20
2022-12-26T15:21:22.177Z,10.20
2022-12-26T15:26:54.840Z,10.40
2022-12-26T15:32:42.439Z,10.40
2022-12-26T15:38:20.511Z,10.30
2022-12-26T15:43:38.740Z,10.30
2022-12-26T15:49:19.391Z,10.20
2022-12-26T15:54:53.618Z,10.10
2022-12-26T16:00:16.258Z,10.00
2022-12-26T16:06:03.059Z,9.90
2022-12-26T16:11:29.345Z,9.80
2022-12-26T16:16:39.431Z,9.80
2022-12-26T16:22:07.985Z,9.70
2022-12-26T16:27:21.135Z,9.60
2022-12-26T16:32:34.942Z,9.50
2022-12-26T16:37:44.482Z,9.40
2022-12-26T16:43:04.540Z,9.40
2022-12-26T16:48:15.378Z,9.50
2022-12-26T16:53:27.773Z,9.50
2022-12-26T16:58:37.665Z,9.50
2022-12-26T17:03:56.307Z,9.60
2022-12-26T17:09:17.140Z,9.60
2022-12-26T17:14:39.981Z,9.60
2022-12-26T17:19:53.614Z,9.60
2022-12-26T17:25:21.660Z,9.60
2022-12-26T17:30:33.252Z,9.60
2022-12-26T17:36:38.336Z,9.70
2022-12-26T17:40:58.627Z,9.60
2022-12-26T17:46:08.042Z,9.70
2022-12-26T17:51:20.222Z,9.80
2022-12-26T17:56:27.508Z,9.70
2022-12-26T18:01:34.338Z,9.70
2022-12-26T18:06:41.532Z,9.80
2022-12-26T18:11:48.880Z,9.90
2022-12-26T18:16:56.201Z,9.80
2022-12-26T18:22:03.743Z,9.80
2022-12-26T18:27:19.382Z,9.80
2022-12-26T18:32:30.687Z,9.80
2022-12-26T18:37:37.677Z,9.90
2022-12-26T18:42:44.238Z,9.90
2022-12-26T18:47:51.423Z,9.90
2022-12-26T18:53:02.812Z,9.80
2022-12-26T18:58:10.796Z,9.70
2022-12-26T19:03:17.460Z,9.70
2022-12-26T19:08:24.642Z,9.70
2022-12-26T19:13:31.748Z,9.80
2022-12-26T19:18:39.432Z,9.80
2022-12-26T19:23:50.755Z,9.70
2022-12-26T19:28:57.955Z,9.70
2022-12-26T19:34:04.171Z,9.60
2022-12-26T19:39:12.124Z,9.70
2022-12-26T19:44:23.308Z,9.50
2022-12-26T19:49:33.795Z,9.30
2022-12-26T19:54:39.414Z,9.20
2022-12-26T19:59:46.824Z,9.30
2022-12-26T20:04:53.860Z,9.30
2022-12-26T20:10:02.595Z,9.20
2022-12-26T20:15:10.103Z,9.30
2022-12-26T20:20:22.629Z,9.30
2022-12-26T20:25:30.235Z,9.50
2022-12-26T20:30:46.254Z,9.60
2022-12-26T20:36:24.574Z,9.50
2022-12-26T20:41:32.107Z,9.40
2022-12-26T20:46:39.279Z,9.20
2022-12-26T20:51:47.014Z,8.90
2022-12-26T20:56:54.462Z,9.00
2022-12-26T21:02:01.649Z,9.00
2022-12-26T21:07:09.644Z,9.10
2022-12-26T21:12:16.621Z,9.10
2022-12-26T21:17:25.657Z,9.00
2022-12-26T21:22:34.791Z,8.80
2022-12-26T21:27:43.311Z,8.70
2022-12-26T21:32:49.702Z,8.60
2022-12-26T21:37:56.456Z,8.50
2022-12-26T21:43:03.191Z,8.50
2022-12-26T21:48:10.462Z,8.40
2022-12-26T21:53:16.686Z,8.20
2022-12-26T21:58:23.957Z,8.10
2022-12-26T22:03:48.612Z,8.00
2022-12-26T22:08:56.378Z,8.00
2022-12-26T22:14:02.853Z,7.90
2022-12-26T22:19:09.855Z,8.00
2022-12-26T22:24:15.222Z,8.10
2022-12-26T22:29:22.820Z,8.00
2022-12-26T22:34:29.453Z,8.00
2022-12-26T22:39:35.862Z,7.80
2022-12-26T22:44:41.993Z,7.70
2022-12-26T22:49:48.379Z,7.50
2022-12-26T22:54:54.826Z,7.30
2022-12-26T23:00:12.894Z,7.30
2022-12-26T23:05:13.094Z,7.10
2022-12-26T23:10:23.620Z,7.10
2022-12-26T23:15:31.644Z,7.20
2022-12-26T23:20:58.162Z,7.10
2022-12-26T23:26:05.011Z,7.00
2022-12-26T23:31:11.393Z,7.00
2022-12-26T23:36:19.631Z,6.70
2022-12-26T23:41:26.110Z,6.70
2022-12-26T23:46:32.668Z,6.70
2022-12-26T23:51:39.758Z,6.60
2022-12-26T23:56:45.955Z,6.40
